Time;durP1;ratioP1;P1;durP2;ratioP2;P2;SDS_P1;SDS_P2;PMS_P1;PMS_P2;Temp;Humidity;BMP_temperature;BMP_pressure;BME280_temperature;BME280_humidity;BME280_pressure;Samples;Min_cycle;Max_cycle;Signal;HPM_P1;HPM_P2
2022/01/28 00:01:03;;;;;;;25.00;3.83;;;5.60;99.90;;;;;;5093808;28;20043;-74
2022/01/28 00:03:31;;;;;;;20.83;3.63;;;5.60;99.90;;;;;;5093366;28;20059;-74
2022/01/28 00:05:57;;;;;;;19.10;3.00;;;5.60;99.90;;;;;;5092755;28;20547;-74
2022/01/28 00:08:23;;;;;;;15.47;2.73;;;5.60;99.90;;;;;;5092792;28;20119;-74
2022/01/28 00:10:50;;;;;;;22.67;3.77;;;5.60;99.90;;;;;;5075553;28;20043;-75
2022/01/28 00:16:34;;;;;;;22.48;4.00;;;5.50;99.90;;;;;;5093598;28;20072;-75
2022/01/28 00:37:59;;;;;;;24.10;3.78;;;5.70;99.90;;;;;;5092330;28;20396;-75
2022/01/28 00:40:13;;;;;;;26.10;4.00;;;5.60;99.90;;;;;;5093459;28;20052;-75
2022/01/28 00:42:38;;;;;;;24.70;4.00;;;5.60;99.90;;;;;;5093359;28;20428;-75
2022/01/28 00:45:05;;;;;;;22.23;4.00;;;5.60;99.90;;;;;;5093090;28;20177;-75
2022/01/28 00:47:31;;;;;;;19.50;3.95;;;5.60;99.90;;;;;;5093482;28;20381;-75
2022/01/28 00:49:57;;;;;;;21.15;3.65;;;5.70;99.90;;;;;;5093033;28;20097;-75
2022/01/28 00:52:22;;;;;;;18.53;3.67;;;5.70;99.90;;;;;;5091804;28;20056;-75
2022/01/28 00:54:48;;;;;;;17.87;3.70;;;5.80;99.90;;;;;;5108860;28;20052;-75
2022/01/28 00:57:14;;;;;;;17.30;2.83;;;5.90;99.90;;;;;;5093277;28;20126;-75
2022/01/28 00:59:39;;;;;;;17.50;2.90;;;5.80;99.90;;;;;;5093176;28;20381;-74
2022/01/28 01:02:06;;;;;;;15.43;2.40;;;5.80;99.90;;;;;;5092894;28;20059;-75
2022/01/28 01:04:31;;;;;;;18.58;3.17;;;5.80;99.90;;;;;;5093110;28;20055;-74
2022/01/28 01:06:57;;;;;;;16.27;2.47;;;5.80;99.90;;;;;;5091665;28;20396;-75
2022/01/28 01:09:23;;;;;;;14.07;2.30;;;5.80;99.90;;;;;;5093139;28;20127;-75
2022/01/28 01:11:48;;;;;;;17.50;2.90;;;5.70;99.90;;;;;;5091855;28;20044;-75
2022/01/28 01:14:14;;;;;;;14.37;2.60;;;5.70;99.90;;;;;;5092082;28;20499;-75
2022/01/28 01:17:03;;;;;;;18.40;3.20;;;5.70;99.90;;;;;;5092697;28;20048;-74
2022/01/28 01:19:33;;;;;;;15.23;2.88;;;5.60;99.90;;;;;;5092589;28;20105;-74
2022/01/28 01:22:00;;;;;;;18.20;3.08;;;5.60;99.90;;;;;;5092820;28;20052;-74
2022/01/28 01:24:34;;;;;;;17.85;3.10;;;5.60;99.90;;;;;;5092922;28;20052;-74
2022/01/28 01:27:00;;;;;;;17.83;3.47;;;5.60;99.90;;;;;;5092737;28;20047;-74
2022/01/28 01:29:26;;;;;;;20.55;3.22;;;5.60;99.90;;;;;;5093328;28;20093;-74
2022/01/28 01:32:00;;;;;;;22.50;4.47;;;5.50;99.90;;;;;;5092531;28;20043;-74
2022/01/28 01:34:26;;;;;;;34.20;5.07;;;5.50;99.90;;;;;;5092264;28;20052;-74
2022/01/28 01:36:52;;;;;;;23.23;3.80;;;5.50;99.90;;;;;;5092182;28;20274;-74
2022/01/28 01:39:27;;;;;;;19.93;3.90;;;5.50;99.90;;;;;;5092883;28;20149;-74
2022/01/28 01:41:59;;;;;;;22.88;4.30;;;5.60;99.90;;;;;;5092522;28;20044;-74
2022/01/28 01:45:11;;;;;;;20.00;3.88;;;5.50;99.90;;;;;;5092160;28;20055;-74
2022/01/28 01:52:55;;;;;;;24.13;3.70;;;5.50;99.90;;;;;;5096530;28;20052;-75
2022/01/28 01:55:22;;;;;;;19.30;3.60;;;5.50;99.90;;;;;;5095379;28;20048;-74
2022/01/28 01:57:48;;;;;;;28.20;4.07;;;5.40;99.90;;;;;;5096528;28;20040;-74
2022/01/28 02:00:15;;;;;;;20.25;4.07;;;5.40;99.90;;;;;;5096411;28;20051;-74
2022/01/28 02:02:41;;;;;;;18.80;3.42;;;5.40;99.90;;;;;;5096408;28;20087;-74
2022/01/28 02:05:07;;;;;;;18.93;3.90;;;5.40;99.90;;;;;;5095112;28;20091;-74
2022/01/28 02:07:33;;;;;;;23.90;5.28;;;5.40;99.90;;;;;;5096764;28;20063;-74
2022/01/28 02:09:58;;;;;;;16.87;3.30;;;5.40;99.90;;;;;;5095083;28;20040;-74
2022/01/28 02:12:24;;;;;;;20.70;3.50;;;5.40;99.90;;;;;;5095082;28;20048;-74
2022/01/28 02:14:50;;;;;;;20.70;4.20;;;5.40;99.90;;;;;;5096194;28;20047;-77
2022/01/28 02:17:16;;;;;;;23.83;4.40;;;5.40;99.90;;;;;;5094907;28;20301;-74
2022/01/28 02:19:41;;;;;;;23.63;4.60;;;5.40;99.90;;;;;;5096256;28;20079;-74
2022/01/28 02:22:07;;;;;;;23.13;3.70;;;5.40;99.90;;;;;;5095831;28;20040;-74
2022/01/28 02:24:40;;;;;;;27.30;4.00;;;5.40;99.90;;;;;;5096239;28;20055;-74
2022/01/28 02:27:06;;;;;;;34.97;6.10;;;5.40;99.90;;;;;;5095750;28;20313;-74
2022/01/28 02:29:35;;;;;;;25.87;4.20;;;5.40;99.90;;;;;;5096041;28;20091;-74
2022/01/28 02:32:04;;;;;;;20.15;3.80;;;5.40;99.90;;;;;;5094561;28;20048;-74
2022/01/28 02:34:30;;;;;;;25.77;4.70;;;5.40;99.90;;;;;;5094861;28;20106;-74
2022/01/28 02:36:56;;;;;;;26.57;5.20;;;5.30;99.90;;;;;;5095427;28;20083;-74
2022/01/28 02:39:22;;;;;;;23.67;5.18;;;5.30;99.90;;;;;;5095501;28;20488;-74
2022/01/28 02:41:51;;;;;;;26.43;4.87;;;5.30;99.90;;;;;;5095925;28;20054;-74
2022/01/28 02:44:35;;;;;;;28.67;4.65;;;5.30;99.90;;;;;;5094343;28;20055;-74
2022/01/28 02:47:03;;;;;;;28.02;4.78;;;5.30;99.90;;;;;;5095459;28;20083;-74
2022/01/28 02:49:34;;;;;;;26.83;5.03;;;5.40;99.90;;;;;;5094380;28;20080;-74
2022/01/28 02:52:02;;;;;;;23.40;4.55;;;5.40;99.90;;;;;;5095355;28;20087;-74
2022/01/28 02:54:27;;;;;;;26.77;4.57;;;5.40;99.90;;;;;;5094544;28;20051;-74
2022/01/28 02:56:59;;;;;;;26.43;4.27;;;5.40;99.90;;;;;;5095517;28;20132;-74
2022/01/28 02:59:25;;;;;;;23.23;4.28;;;5.50;99.90;;;;;;5095448;28;20040;-74
2022/01/28 03:01:51;;;;;;;24.87;4.93;;;5.50;99.90;;;;;;5077547;28;20545;-74
2022/01/28 03:07:01;;;;;;;30.33;5.43;;;5.50;99.90;;;;;;5095037;28;20052;-74
2022/01/28 03:09:36;;;;;;;22.80;3.90;;;5.50;99.90;;;;;;5095239;28;20117;-74
2022/01/28 03:12:13;;;;;;;31.40;5.30;;;5.50;99.90;;;;;;5078569;28;20113;-74
2022/01/28 03:14:58;;;;;;;29.33;5.57;;;5.50;99.90;;;;;;5094123;28;20048;-74
2022/01/28 03:17:51;;;;;;;31.42;6.72;;;5.50;99.90;;;;;;5094383;28;20050;-74
2022/01/28 03:22:41;;;;;;;31.10;5.55;;;5.50;99.90;;;;;;5094904;28;20079;-74
2022/01/28 03:25:07;;;;;;;26.97;5.57;;;5.40;99.90;;;;;;5093069;28;20523;-74
2022/01/28 03:27:54;;;;;;;26.55;4.45;;;5.40;99.90;;;;;;5095125;28;20083;-74
2022/01/28 03:30:21;;;;;;;28.00;4.32;;;5.40;99.90;;;;;;5094214;28;20484;-74
2022/01/28 03:32:46;;;;;;;31.42;5.43;;;5.40;99.90;;;;;;5094785;28;20139;-74
2022/01/28 03:35:15;;;;;;;34.50;5.40;;;5.30;99.90;;;;;;5094388;28;20554;-74
2022/01/28 03:37:40;;;;;;;28.73;4.63;;;5.30;99.90;;;;;;5093789;28;20403;-74
2022/01/28 03:40:08;;;;;;;25.57;5.03;;;5.30;99.90;;;;;;5094401;28;20047;-74
2022/01/28 03:42:35;;;;;;;30.05;5.00;;;5.30;99.90;;;;;;5094564;28;20052;-74
2022/01/28 03:45:01;;;;;;;28.50;4.03;;;5.30;99.90;;;;;;5093513;28;20052;-76
2022/01/28 03:47:26;;;;;;;25.08;4.40;;;5.20;99.90;;;;;;5094491;28;20083;-74
2022/01/28 03:49:52;;;;;;;23.27;4.67;;;5.20;99.90;;;;;;5093485;28;20076;-74
2022/01/28 03:52:18;;;;;;;30.97;5.30;;;5.20;99.90;;;;;;5093858;28;20090;-74
2022/01/28 03:54:44;;;;;;;33.43;5.97;;;5.20;99.90;;;;;;5093110;28;20056;-74
2022/01/28 03:57:10;;;;;;;26.63;5.15;;;5.20;99.90;;;;;;5092719;28;20048;-74
2022/01/28 03:59:36;;;;;;;35.00;5.87;;;5.20;99.90;;;;;;5094396;28;20137;-74
2022/01/28 04:02:04;;;;;;;25.43;5.37;;;5.20;99.90;;;;;;5094208;28;20105;-74
2022/01/28 04:12:38;;;;;;;22.60;4.40;;;5.20;99.90;;;;;;5094268;28;20087;-74
2022/01/28 04:15:18;;;;;;;24.98;5.00;;;5.30;99.90;;;;;;5094065;28;20048;-74
2022/01/28 04:17:44;;;;;;;24.63;4.78;;;5.30;99.90;;;;;;5094137;28;20126;-74
2022/01/28 04:20:10;;;;;;;25.52;4.97;;;5.30;99.90;;;;;;5093885;28;20055;-74
2022/01/28 04:22:36;;;;;;;27.87;5.03;;;5.30;99.90;;;;;;5093738;28;20044;-74
2022/01/28 04:25:02;;;;;;;26.90;4.53;;;5.40;99.90;;;;;;5092663;28;20139;-74
2022/01/28 04:27:28;;;;;;;22.25;4.15;;;5.40;99.90;;;;;;5093378;28;20040;-74
2022/01/28 04:29:54;;;;;;;30.50;5.70;;;5.40;99.90;;;;;;5092785;28;20048;-74
2022/01/28 04:32:20;;;;;;;28.23;6.13;;;5.40;99.90;;;;;;5093411;28;20055;-75
2022/01/28 04:34:46;;;;;;;21.15;3.95;;;5.50;99.90;;;;;;5092693;28;20056;-75
2022/01/28 04:40:05;;;;;;;24.85;4.82;;;5.50;99.90;;;;;;5092490;28;20063;-75
2022/01/28 04:50:28;;;;;;;23.67;4.13;;;5.60;99.90;;;;;;5093215;28;20048;-75
2022/01/28 04:53:10;;;;;;;21.75;4.20;;;5.60;99.90;;;;;;5093589;28;20048;-75
2022/01/28 05:03:53;;;;;;;26.88;5.10;;;5.60;99.90;;;;;;5092918;28;20058;-74
2022/01/28 05:27:37;;;;;;;32.25;5.70;;;5.60;99.90;;;;;;5096895;28;20050;-74
2022/01/28 05:30:06;;;;;;;24.13;4.47;;;5.60;99.90;;;;;;5097257;28;20048;-74
2022/01/28 05:32:32;;;;;;;25.30;4.85;;;5.50;99.90;;;;;;5096861;28;20105;-75
2022/01/28 05:34:58;;;;;;;25.07;4.33;;;5.50;99.90;;;;;;5113215;28;20052;-74
2022/01/28 05:37:24;;;;;;;31.03;5.00;;;5.40;99.90;;;;;;5096696;28;20066;-74
2022/01/28 05:39:49;;;;;;;25.77;4.70;;;5.40;99.90;;;;;;5095487;28;20048;-75
2022/01/28 05:42:15;;;;;;;41.87;5.73;;;5.40;99.90;;;;;;5096659;28;20043;-75
2022/01/28 05:44:41;;;;;;;20.27;4.13;;;5.40;99.90;;;;;;5096892;28;20095;-74
2022/01/28 05:47:07;;;;;;;34.43;5.53;;;5.30;99.90;;;;;;5095614;28;20040;-74
2022/01/28 05:49:32;;;;;;;26.83;5.33;;;5.30;99.90;;;;;;5095415;28;20119;-74
2022/01/28 05:51:59;;;;;;;23.77;4.10;;;5.30;99.90;;;;;;5097140;28;20434;-74
2022/01/28 05:54:24;;;;;;;26.23;5.25;;;5.40;99.90;;;;;;5096487;28;20142;-74
2022/01/28 05:56:50;;;;;;;26.07;4.63;;;5.30;99.90;;;;;;5095397;28;20130;-74
2022/01/28 05:59:19;;;;;;;26.47;4.20;;;;;;;;;;5095279;28;20086;-78
2022/01/28 06:01:45;;;;;;;20.85;4.35;;;;;;;;;;5096471;28;20044;-74
2022/01/28 06:04:11;;;;;;;18.85;4.47;;;;;;;;;;5095049;28;20040;-74
2022/01/28 06:06:37;;;;;;;25.75;5.00;;;;;;;;;;5096183;28;20226;-74
2022/01/28 06:09:04;;;;;;;28.65;5.22;;;;;;;;;;5096481;28;20044;-74
2022/01/28 06:11:30;;;;;;;27.23;4.88;;;;;;;;;;5096078;28;20056;-74
2022/01/28 06:13:56;;;;;;;23.02;4.93;;;;;;;;;;5096277;28;20048;-74
2022/01/28 06:16:21;;;;;;;25.88;4.40;;;5.00;99.90;;;;;;5095927;28;20153;-74
2022/01/28 06:18:47;;;;;;;23.10;3.50;;;5.10;99.90;;;;;;5095063;28;20040;-74
2022/01/28 06:21:13;;;;;;;26.77;5.07;;;5.00;99.90;;;;;;5096221;28;20127;-74
2022/01/28 06:23:39;;;;;;;26.20;5.03;;;5.00;99.90;;;;;;5095517;28;20044;-74
2022/01/28 06:26:05;;;;;;;27.93;4.80;;;;;;;;;;5096083;28;20133;-74
2022/01/28 06:28:31;;;;;;;27.23;5.50;;;;;;;;;;5094679;28;20056;-74
2022/01/28 06:30:57;;;;;;;28.40;4.90;;;;;;;;;;5095933;28;20044;-74
2022/01/28 06:33:24;;;;;;;21.00;3.80;;;;;;;;;;5094927;28;20434;-74
2022/01/28 06:35:50;;;;;;;23.40;4.00;;;;;;;;;;5096095;28;20109;-74
2022/01/28 06:38:16;;;;;;;29.27;4.20;;;;;;;;;;5095722;28;20051;-74
2022/01/28 06:40:42;;;;;;;24.33;4.72;;;;;;;;;;5095531;28;20044;-74
2022/01/28 06:43:09;;;;;;;27.40;4.68;;;;;;;;;;5095824;28;20044;-74
2022/01/28 06:45:36;;;;;;;19.25;3.28;;;;;;;;;;5094480;28;20056;-74
2022/01/28 06:48:02;;;;;;;31.67;5.35;;;;;;;;;;5095531;28;20048;-74
2022/01/28 06:50:28;;;;;;;24.67;4.57;;;;;;;;;;5094008;28;20453;-75
2022/01/28 06:52:54;;;;;;;23.80;4.35;;;;;;;;;;5095417;28;20515;-74
2022/01/28 06:55:20;;;;;;;26.08;3.65;;;;;;;;;;5095557;28;20040;-74
2022/01/28 06:57:46;;;;;;;19.05;3.75;;;;;;;;;;5095018;28;20051;-74
2022/01/28 07:00:12;;;;;;;21.88;4.20;;;;;;;;;;5095528;28;20463;-74
2022/01/28 07:02:38;;;;;;;29.88;4.03;;;;;;;;;;5093787;28;20044;-74
2022/01/28 07:05:05;;;;;;;26.20;4.70;;;;;;;;;;5095393;28;20154;-74
2022/01/28 07:07:33;;;;;;;28.83;4.43;;;;;;;;;;5095139;28;20044;-74
2022/01/28 07:10:00;;;;;;;23.42;4.47;;;;;;;;;;5094269;28;20047;-74
2022/01/28 07:12:26;;;;;;;25.33;4.63;;;;;;;;;;5095036;28;20044;-74
2022/01/28 07:14:53;;;;;;;27.70;4.20;;;;;;;;;;5095071;28;20048;-74
2022/01/28 07:17:19;;;;;;;26.98;5.07;;;;;;;;;;5094110;28;20052;-74
2022/01/28 07:19:45;;;;;;;25.63;5.47;;;;;;;;;;5093833;28;20135;-74
2022/01/28 07:22:11;;;;;;;27.70;4.90;;;;;;;;;;5095052;28;20070;-74
2022/01/28 07:24:38;;;;;;;23.58;4.57;;;;;;;;;;5094693;28;20475;-74
2022/01/28 07:27:04;;;;;;;26.45;4.18;;;;;;;;;;5095007;28;20452;-74
2022/01/28 07:29:32;;;;;;;32.67;5.18;;;;;;;;;;5093629;28;20077;-74
2022/01/28 07:31:59;;;;;;;28.83;5.22;;;;;;;;;;5095098;28;20505;-74
2022/01/28 07:34:24;;;;;;;25.10;4.47;;;4.40;99.90;;;;;;5094703;28;20044;-74
2022/01/28 07:36:51;;;;;;;18.90;4.57;;;4.40;99.90;;;;;;5094475;28;20047;-74
2022/01/28 07:39:17;;;;;;;21.70;4.65;;;4.30;99.90;;;;;;5094563;28;20111;-74
2022/01/28 07:41:43;;;;;;;25.52;4.82;;;4.30;99.90;;;;;;5094290;28;20047;-74
2022/01/28 07:44:09;;;;;;;26.27;4.57;;;4.30;99.90;;;;;;5093256;28;20048;-74
2022/01/28 07:46:35;;;;;;;25.10;5.40;;;4.30;99.90;;;;;;5093220;28;20129;-74
2022/01/28 07:49:02;;;;;;;24.87;4.73;;;4.30;99.90;;;;;;5094505;28;20475;-74
2022/01/28 07:51:27;;;;;;;27.90;4.93;;;4.40;99.90;;;;;;5093126;28;20056;-73
2022/01/28 07:53:53;;;;;;;22.40;4.57;;;4.40;99.90;;;;;;5094334;28;20476;-74
2022/01/28 07:56:22;;;;;;;26.60;5.73;;;4.40;99.90;;;;;;5094557;28;20524;-74
2022/01/28 07:58:47;;;;;;;27.10;5.18;;;4.50;99.90;;;;;;5093919;28;20491;-74
2022/01/28 08:01:13;;;;;;;24.13;4.27;;;4.50;99.90;;;;;;5093273;28;20040;-74
2022/01/28 08:03:39;;;;;;;22.13;4.17;;;4.60;99.90;;;;;;5093951;28;20131;-74
2022/01/28 08:06:05;;;;;;;22.53;3.73;;;4.60;99.90;;;;;;5092869;28;20052;-74
2022/01/28 08:08:30;;;;;;;25.53;4.20;;;4.60;99.90;;;;;;5092724;28;20090;-79
2022/01/28 08:10:56;;;;;;;29.47;5.20;;;4.60;99.90;;;;;;5094039;28;20457;-74
2022/01/28 08:13:22;;;;;;;28.17;4.93;;;4.60;99.90;;;;;;5092754;28;20518;-74
2022/01/28 08:15:49;;;;;;;19.53;4.20;;;4.70;99.90;;;;;;5093408;28;20427;-75
2022/01/28 08:18:15;;;;;;;28.75;4.38;;;4.70;99.90;;;;;;5092866;28;20096;-74
2022/01/28 08:20:41;;;;;;;20.05;3.67;;;4.60;99.90;;;;;;5092494;28;20392;-75
2022/01/28 08:23:07;;;;;;;26.87;4.57;;;4.70;99.90;;;;;;5092977;28;20043;-75
2022/01/28 08:25:36;;;;;;;27.47;4.37;;;4.70;99.90;;;;;;5092130;28;20286;-81
2022/01/28 08:28:04;;;;;;;27.42;4.28;;;4.70;99.90;;;;;;5093830;28;20079;-74
2022/01/28 08:30:30;;;;;;;24.83;4.47;;;4.70;99.90;;;;;;5092610;28;20090;-74
2022/01/28 08:32:56;;;;;;;29.58;5.00;;;4.70;99.90;;;;;;5093418;28;20067;-74
2022/01/28 08:35:32;;;;;;;25.65;4.90;;;4.70;99.90;;;;;;5093677;28;20122;-74
2022/01/28 08:37:59;;;;;;;28.08;4.50;;;4.70;99.90;;;;;;5093220;28;20097;-74
2022/01/28 08:40:27;;;;;;;26.50;4.40;;;4.70;99.90;;;;;;5092713;28;20535;-74
2022/01/28 08:42:53;;;;;;;28.60;4.63;;;4.80;99.90;;;;;;5093203;28;20051;-75
2022/01/28 08:45:19;;;;;;;20.15;4.63;;;4.80;99.90;;;;;;5093515;28;20101;-74
2022/01/28 08:47:46;;;;;;;19.48;4.07;;;4.80;99.90;;;;;;5092139;28;20385;-75
2022/01/28 08:50:11;;;;;;;29.45;4.25;;;4.90;99.90;;;;;;5092504;28;20423;-75
2022/01/28 08:52:37;;;;;;;29.07;5.63;;;4.90;99.90;;;;;;5093320;28;20108;-75
2022/01/28 08:55:04;;;;;;;31.57;5.70;;;;;;;;;;5093574;28;20091;-75
2022/01/28 08:57:30;;;;;;;21.95;3.95;;;;;;;;;;5092954;28;20048;-75
2022/01/28 08:59:56;;;;;;;34.75;5.95;;;;;;;;;;5091716;28;20052;-74
2022/01/28 09:02:22;;;;;;;30.48;5.32;;;;;;;;;;5093458;28;20067;-75
2022/01/28 09:04:49;;;;;;;31.38;4.85;;;;;;;;;;5092596;28;20051;-75
2022/01/28 09:07:18;;;;;;;29.13;4.65;;;;;;;;;;5093354;28;20052;-75
2022/01/28 09:09:50;;;;;;;25.08;4.80;;;;;;;;;;5091892;28;20044;-75
2022/01/28 09:12:33;;;;;;;26.83;4.68;;;;;;;;;;5126057;27;20059;-74
2022/01/28 09:15:00;;;;;;;26.17;4.75;;;;;;;;;;5092849;28;20054;-75
2022/01/28 09:17:26;;;;;;;31.95;6.13;;;;;;;;;;5093239;28;20063;-74
2022/01/28 09:19:52;;;;;;;28.15;5.35;;;;;;;;;;5091782;28;20066;-74
2022/01/28 09:22:18;;;;;;;21.35;5.03;;;7.50;99.90;;;;;;5091870;28;20086;-75
2022/01/28 09:24:44;;;;;;;28.33;5.27;;;5.80;99.90;;;;;;5074795;28;20052;-75
2022/01/28 09:27:09;;;;;;;32.43;6.27;;;5.70;99.90;;;;;;5092982;28;20131;-75
2022/01/28 09:29:35;;;;;;;21.53;4.40;;;5.70;99.90;;;;;;5093260;28;20061;-74
2022/01/28 09:32:01;;;;;;;30.83;6.23;;;5.70;99.90;;;;;;5092341;28;20554;-74
2022/01/28 09:34:27;;;;;;;26.60;5.57;;;5.80;99.90;;;;;;5091681;28;20048;-74
2022/01/28 09:36:53;;;;;;;25.27;5.55;;;5.80;99.90;;;;;;5092565;28;20047;-74
2022/01/28 09:39:20;;;;;;;27.63;6.10;;;5.80;99.90;;;;;;5091497;28;20040;-73
2022/01/28 09:41:47;;;;;;;26.98;6.53;;;5.80;99.90;;;;;;5091465;28;20132;-73
2022/01/28 09:44:15;;;;;;;27.90;5.05;;;5.80;99.90;;;;;;5091773;28;20563;-75
2022/01/28 09:46:42;;;;;;;27.85;5.28;;;5.90;99.90;;;;;;5092693;28;20066;-83
2022/01/28 09:49:08;;;;;;;25.88;5.68;;;5.90;99.90;;;;;;5092700;28;20045;-74
2022/01/28 09:51:35;;;;;;;26.00;5.50;;;5.80;99.90;;;;;;5092526;28;20549;-75
2022/01/28 09:54:01;;;;;;;22.80;4.83;;;5.80;99.90;;;;;;5091438;28;20045;-75
2022/01/28 09:56:29;;;;;;;29.50;5.47;;;5.80;99.90;;;;;;5092640;28;20047;-74
2022/01/28 09:58:55;;;;;;;27.10;5.47;;;5.70;99.90;;;;;;5092101;28;20472;-76
2022/01/28 10:01:21;;;;;;;38.10;7.10;;;5.70;99.90;;;;;;5092735;28;20058;-75
2022/01/28 10:04:04;;;;;;;27.47;6.47;;;5.70;99.90;;;;;;5091304;28;20105;-76
2022/01/28 10:06:33;;;;;;;29.30;6.85;;;5.60;99.90;;;;;;5092791;28;20044;-76
2022/01/28 10:09:05;;;;;;;26.70;5.82;;;5.60;99.90;;;;;;5093490;28;20040;-77
2022/01/28 10:11:31;;;;;;;25.90;5.38;;;5.60;99.90;;;;;;5095386;28;20119;-76
2022/01/28 10:14:08;;;;;;;37.67;6.27;;;5.60;99.90;;;;;;5095007;28;20135;-81
2022/01/28 10:16:34;;;;;;;36.85;6.90;;;5.70;99.90;;;;;;5095187;28;20377;-80
2022/01/28 10:19:02;;;;;;;28.60;6.10;;;5.70;99.90;;;;;;5094638;28;20051;-79
2022/01/28 10:21:33;;;;;;;29.23;5.60;;;5.70;99.90;;;;;;5096266;28;20290;-78
2022/01/28 10:24:05;;;;;;;34.75;5.90;;;5.70;99.90;;;;;;5095785;28;20044;-80
2022/01/28 10:26:38;;;;;;;25.25;5.60;;;5.70;99.90;;;;;;5096284;28;20398;-82
2022/01/28 10:29:25;;;;;;;29.85;6.05;;;5.80;99.90;;;;;;5095725;28;20051;-79
2022/01/28 10:31:55;;;;;;;27.17;5.43;;;5.80;99.90;;;;;;5095086;28;20139;-81
2022/01/28 10:34:22;;;;;;;32.22;6.43;;;5.80;99.90;;;;;;5096090;28;20055;-80
2022/01/28 10:36:49;;;;;;;28.73;5.90;;;6.00;99.90;;;;;;5095711;28;20052;-79
2022/01/28 10:39:22;;;;;;;30.55;5.80;;;6.00;99.90;;;;;;5095671;28;20040;-84
2022/01/28 10:41:54;;;;;;;28.83;5.63;;;6.10;99.90;;;;;;5095666;28;20052;-81
2022/01/28 10:44:20;;;;;;;22.48;4.88;;;6.10;99.90;;;;;;5094055;28;20504;-80
2022/01/28 10:46:58;;;;;;;21.00;4.67;;;6.20;99.90;;;;;;5094561;28;20087;-79
2022/01/28 10:49:29;;;;;;;21.50;4.68;;;6.20;99.90;;;;;;5094864;28;20279;-81
2022/01/28 10:51:54;;;;;;;29.30;4.60;;;6.20;99.90;;;;;;5094871;28;20052;-80
2022/01/28 10:54:23;;;;;;;31.80;5.23;;;6.30;99.90;;;;;;5095498;28;20044;-84
2022/01/28 10:56:53;;;;;;;26.88;5.00;;;6.30;99.90;;;;;;5094341;28;20047;-85
2022/01/28 10:59:21;;;;;;;23.52;5.95;;;6.30;99.90;;;;;;5095383;28;20484;-78
2022/01/28 11:01:48;;;;;;;23.88;4.68;;;6.30;99.90;;;;;;5094392;28;20048;-82
2022/01/28 11:04:15;;;;;;;24.55;5.00;;;6.30;99.90;;;;;;5077216;28;20058;-76
2022/01/28 11:06:42;;;;;;;22.20;5.95;;;6.30;99.90;;;;;;5095251;28;20052;-73
2022/01/28 11:09:09;;;;;;;26.02;4.35;;;6.30;99.90;;;;;;5077256;28;20344;-73
2022/01/28 11:11:36;;;;;;;25.98;4.60;;;6.40;99.90;;;;;;5095074;28;20044;-74
2022/01/28 11:14:03;;;;;;;29.73;5.13;;;6.40;99.90;;;;;;5094814;28;20048;-74
2022/01/28 11:16:28;;;;;;;27.08;4.47;;;6.50;99.90;;;;;;5094190;28;20101;-75
2022/01/28 11:18:56;;;;;;;24.67;5.37;;;6.60;99.90;;;;;;5094617;28;20048;-77
2022/01/28 11:22:09;;;;;;;32.08;4.55;;;6.60;99.90;;;;;;5093730;28;20054;-75
2022/01/28 11:25:08;;;;;;;26.03;4.47;;;6.70;99.90;;;;;;5088671;28;20060;-76
2022/01/28 11:27:38;;;;;;;24.98;4.30;;;6.70;99.90;;;;;;5088286;28;20305;-74
2022/01/28 11:30:20;;;;;;;22.23;3.88;;;6.70;99.90;;;;;;5088222;28;20036;-76
2022/01/28 11:33:13;;;;;;;26.17;5.15;;;6.70;99.90;;;;;;5087017;28;20044;-74
2022/01/28 11:35:42;;;;;;;27.02;4.50;;;6.80;99.90;;;;;;5086031;28;20071;-74
2022/01/28 11:38:28;;;;;;;21.02;4.55;;;6.80;99.90;;;;;;5088560;28;20075;-74
2022/01/28 11:41:06;;;;;;;24.05;4.43;;;6.80;99.90;;;;;;5088026;28;20055;-75
2022/01/28 11:43:33;;;;;;;25.75;3.38;;;6.80;99.90;;;;;;5087230;28;20228;-76
2022/01/28 11:46:09;;;;;;;22.77;4.55;;;6.70;99.90;;;;;;5087842;28;20048;-78
2022/01/28 11:48:56;;;;;;;30.13;5.22;;;6.70;99.90;;;;;;5089172;28;20381;-72
2022/01/28 11:51:23;;;;;;;29.98;4.70;;;6.60;99.90;;;;;;5093478;28;20060;-72
2022/01/28 11:53:57;;;;;;;23.90;3.22;;;6.70;99.90;;;;;;5093087;28;20047;-75
2022/01/28 11:56:27;;;;;;;21.98;4.03;;;6.60;99.90;;;;;;5093541;28;20044;-74
2022/01/28 11:59:09;;;;;;;23.10;3.58;;;6.70;99.90;;;;;;5094138;28;20040;-73
2022/01/28 12:01:37;;;;;;;29.98;4.72;;;6.70;99.90;;;;;;5094158;28;20134;-73
2022/01/28 12:04:36;;;;;;;23.63;3.83;;;6.70;99.90;;;;;;5093771;28;20388;-74
2022/01/28 12:07:23;;;;;;;25.60;3.97;;;6.80;99.90;;;;;;5070634;28;20423;-74
2022/01/28 12:09:54;;;;;;;18.15;3.72;;;6.80;99.90;;;;;;5094089;28;20464;-73
2022/01/28 12:12:44;;;;;;;25.00;4.55;;;6.80;99.90;;;;;;5092707;28;20052;-73
2022/01/28 12:15:16;;;;;;;20.40;3.78;;;6.80;99.90;;;;;;5086458;28;20056;-74
2022/01/28 12:17:44;;;;;;;22.88;3.70;;;6.80;99.90;;;;;;5093952;28;20056;-74
2022/01/28 12:20:16;;;;;;;22.05;4.45;;;6.80;99.90;;;;;;5093421;28;20569;-73
2022/01/28 12:23:09;;;;;;;28.38;4.15;;;6.90;99.90;;;;;;5093922;28;20177;-84
2022/01/28 12:25:35;;;;;;;23.45;5.32;;;6.80;99.90;;;;;;5093831;28;20391;-84
2022/01/28 12:28:50;;;;;;;18.17;3.10;;;6.80;99.90;;;;;;5092230;28;20035;-75
2022/01/28 12:31:22;;;;;;;19.90;3.55;;;6.90;99.90;;;;;;5086132;28;20096;-75
2022/01/28 12:33:51;;;;;;;26.00;4.70;;;7.00;99.90;;;;;;5092577;28;20480;-74
2022/01/28 12:36:24;;;;;;;25.05;3.50;;;6.90;99.90;;;;;;5093268;28;20384;-74
2022/01/28 12:39:08;;;;;;;24.33;4.53;;;6.90;99.90;;;;;;5093756;28;20043;-74
2022/01/28 12:41:43;;;;;;;21.35;4.15;;;6.80;99.90;;;;;;5093219;28;20551;-74
2022/01/28 12:44:10;;;;;;;15.88;3.30;;;6.90;99.90;;;;;;5092235;28;20112;-75
2022/01/28 12:46:38;;;;;;;22.17;3.42;;;6.80;99.90;;;;;;5093387;28;20051;-75
2022/01/28 12:49:04;;;;;;;27.83;5.13;;;6.90;99.90;;;;;;5093024;28;20055;-76
2022/01/28 12:51:37;;;;;;;25.03;4.60;;;7.00;99.90;;;;;;5093236;28;20052;-75
2022/01/28 12:54:03;;;;;;;19.30;3.67;;;7.10;99.90;;;;;;5092116;28;20048;-76
2022/01/28 12:56:36;;;;;;;20.73;3.60;;;7.20;99.90;;;;;;5093318;28;20131;-75
2022/01/28 12:59:03;;;;;;;18.58;3.95;;;7.20;99.90;;;;;;5091958;28;20530;-74
2022/01/28 13:01:29;;;;;;;16.80;3.70;;;7.20;99.90;;;;;;5092926;28;20491;-75
2022/01/28 13:04:12;;;;;;;23.00;3.20;;;7.20;99.90;;;;;;5092262;28;20355;-75
2022/01/28 13:09:14;;;;;;;23.93;3.57;;;7.20;99.90;;;;;;5091885;28;20502;-74
2022/01/28 13:11:44;;;;;;;18.67;2.87;;;7.10;99.90;;;;;;5092210;28;20291;-74
2022/01/28 13:14:11;;;;;;;22.20;4.07;;;7.10;99.90;;;;;;5092844;28;20047;-77
2022/01/28 13:16:40;;;;;;;15.80;3.63;;;7.10;99.90;;;;;;5092840;28;20289;-74
2022/01/28 13:19:07;;;;;;;24.10;4.20;;;7.10;99.90;;;;;;5092709;28;20778;-76
2022/01/28 13:21:34;;;;;;;21.42;3.63;;;7.20;99.90;;;;;;5093022;28;20657;-78
2022/01/28 13:24:07;;;;;;;19.97;3.53;;;7.30;99.90;;;;;;5093051;28;20044;-77
2022/01/28 13:26:33;;;;;;;26.67;3.83;;;7.40;99.90;;;;;;5092913;28;20315;-77
2022/01/28 13:29:06;;;;;;;18.53;3.40;;;7.40;99.90;;;;;;5075165;28;20040;-77
2022/01/28 13:31:32;;;;;;;23.73;3.78;;;7.40;99.90;;;;;;5092915;28;20051;-75
2022/01/28 13:33:59;;;;;;;20.40;3.70;;;7.40;99.90;;;;;;5091658;28;20048;-74
2022/01/28 13:36:25;;;;;;;24.27;4.03;;;7.30;99.90;;;;;;5092556;28;20048;-76
2022/01/28 13:38:51;;;;;;;14.10;3.07;;;7.30;99.90;;;;;;5092863;28;20040;-72
2022/01/28 13:41:25;;;;;;;19.73;3.90;;;7.20;99.90;;;;;;5092529;28;20048;-75
2022/01/28 13:43:53;;;;;;;18.20;2.92;;;7.20;99.90;;;;;;5093934;28;20048;-76
2022/01/28 13:46:19;;;;;;;15.77;4.55;;;7.10;99.90;;;;;;5095626;28;20476;-77
2022/01/28 13:48:47;;;;;;;18.77;3.00;;;7.10;99.90;;;;;;5095598;28;20131;-79
2022/01/28 13:51:16;;;;;;;24.50;3.33;;;7.10;99.90;;;;;;5095175;28;20075;-77
2022/01/28 13:54:15;;;;;;;22.38;4.22;;;7.10;99.90;;;;;;5096730;28;20650;-83
2022/01/28 13:56:36;;;;;;;17.13;3.30;;;7.10;99.90;;;;;;5096505;28;20048;-85
2022/01/28 13:59:25;;;;;;;17.10;2.75;;;7.10;99.90;;;;;;5096317;28;20551;-86
2022/01/28 14:01:52;;;;;;;16.33;2.80;;;7.10;99.90;;;;;;5096777;28;20050;-76
2022/01/28 14:04:35;;;;;;;16.80;2.20;;;7.20;99.90;;;;;;5095244;28;20049;-75
2022/01/28 14:07:13;;;;;;;15.73;3.10;;;7.20;99.90;;;;;;5096558;28;20742;-74
2022/01/28 14:10:15;;;;;;;16.48;3.40;;;7.30;99.90;;;;;;5096859;28;20087;-76
2022/01/28 14:12:46;;;;;;;18.53;2.80;;;7.30;99.90;;;;;;5096386;28;20048;-74
2022/01/28 14:15:26;;;;;;;24.43;3.40;;;7.30;99.90;;;;;;5091951;28;20329;-81
2022/01/28 14:17:53;;;;;;;19.48;3.20;;;7.30;99.90;;;;;;5078961;28;20352;-81
2022/01/28 14:20:19;;;;;;;16.33;3.73;;;7.30;99.90;;;;;;5074606;28;20476;-81
2022/01/28 14:22:46;;;;;;;19.90;3.10;;;7.20;99.90;;;;;;5075882;28;20293;-80
2022/01/28 14:25:11;;;;;;;17.40;3.17;;;7.20;99.90;;;;;;5074890;28;20296;-80
2022/01/28 14:30:16;;;;;;;17.85;4.32;;;7.20;99.90;;;;;;5075717;28;20048;-86
2022/01/28 14:32:42;;;;;;;17.03;3.20;;;7.20;99.90;;;;;;5075155;28;20092;-80
2022/01/28 14:35:08;;;;;;;20.60;2.80;;;7.10;99.90;;;;;;5074570;28;20631;-78
2022/01/28 14:37:38;;;;;;;17.60;3.10;;;7.20;99.90;;;;;;5075328;28;20304;-83